Time;durP1;ratioP1;P1;durP2;ratioP2;P2;SDS_P1;SDS_P2;PMS_P1;PMS_P2;Temp;Humidity;BMP_temperature;BMP_pressure;BME280_temperature;BME280_humidity;BME280_pressure;Samples;Min_cycle;Max_cycle;Signal;HPM_P1;HPM_P2
2023/08/21 00:01:35;;;;;;;9.05;3.30;;;;;;;16.89;95.92;102425.50;6101424;19;20012;-71
2023/08/21 00:03:40;;;;;;;8.00;3.53;;;;;;;16.97;96.91;102421.66;6098041;19;20017;-71
2023/08/21 00:05:46;;;;;;;7.60;3.05;;;;;;;16.89;96.28;102421.97;6098306;19;20039;-72
2023/08/21 00:07:55;;;;;;;8.82;3.28;;;;;;;16.84;95.89;102421.31;6095094;19;20012;-71
2023/08/21 00:10:00;;;;;;;10.32;2.70;;;;;;;16.84;96.45;102421.31;6096414;19;19998;-71
2023/08/21 00:12:07;;;;;;;6.03;2.70;;;;;;;16.87;96.16;102426.50;6095343;19;20035;-72
2023/08/21 00:14:12;;;;;;;9.18;3.95;;;;;;;16.85;96.91;102423.91;6091721;19;20482;-72
2023/08/21 00:16:17;;;;;;;11.15;4.00;;;;;;;16.85;97.46;102420.38;6096104;19;20013;-72
2023/08/21 00:18:25;;;;;;;6.00;2.83;;;;;;;16.86;96.68;102430.09;6090615;19;21244;-72
2023/08/21 00:20:31;;;;;;;10.20;3.78;;;;;;;16.86;96.96;102425.63;6098530;19;20316;-71
2023/08/21 00:22:36;;;;;;;7.70;3.25;;;;;;;16.87;96.00;102416.72;6095461;19;20013;-71
2023/08/21 00:24:44;;;;;;;6.72;3.30;;;;;;;16.87;96.31;102419.38;6097336;19;20408;-72
2023/08/21 00:26:49;;;;;;;5.65;2.47;;;;;;;16.93;96.25;102418.28;6086755;19;20006;-72
2023/08/21 00:28:56;;;;;;;8.68;2.92;;;;;;;16.93;96.11;102415.63;6097780;19;20538;-73
2023/08/21 00:31:05;;;;;;;9.02;3.22;;;;;;;16.93;96.79;102422.72;6098028;19;20007;-71
2023/08/21 00:33:11;;;;;;;11.73;3.00;;;;;;;16.93;96.78;102412.97;6096250;19;20010;-71
2023/08/21 00:35:16;;;;;;;9.02;3.30;;;;;;;16.92;96.30;102408.56;6098931;19;20369;-71
2023/08/21 00:37:19;;;;;;;6.00;3.10;;;;;;;16.91;95.76;102409.50;6099563;19;20002;-71
2023/08/21 00:39:26;;;;;;;5.82;3.00;;;;;;;16.97;96.23;102414.56;6097601;19;20324;-71
2023/08/21 00:41:34;;;;;;;6.68;2.90;;;;;;;16.94;95.99;102411.19;6095921;19;20003;-70
2023/08/21 00:43:39;;;;;;;5.47;3.22;;;;;;;16.92;96.39;102402.41;6099389;19;20045;-71
2023/08/21 00:45:47;;;;;;;4.55;2.42;;;;;;;16.87;95.11;102402.59;6091098;19;20548;-71
2023/08/21 00:47:53;;;;;;;7.25;2.72;;;;;;;16.90;96.77;102405.09;6093595;19;20082;-71
2023/08/21 00:50:00;;;;;;;4.55;2.72;;;;;;;16.88;97.13;102402.53;6099143;19;19999;-71
2023/08/21 00:52:06;;;;;;;7.78;3.22;;;;;;;16.86;97.40;102406.19;6094384;19;20046;-72
2023/08/21 00:54:12;;;;;;;7.18;2.80;;;;;;;16.84;96.91;102400.94;6096561;19;19999;-72
2023/08/21 00:56:17;;;;;;;7.13;2.83;;;;;;;16.84;97.11;102400.94;6095675;19;20014;-72
2023/08/21 00:58:25;;;;;;;7.10;2.40;;;;;;;16.86;96.63;102398.22;6091713;19;20041;-72
2023/08/21 01:00:32;;;;;;;7.13;2.60;;;;;;;16.83;96.68;102401.00;6093784;19;20024;-72
2023/08/21 01:02:37;;;;;;;4.35;2.40;;;;;;;16.83;96.83;102409.84;6088182;19;20477;-71
2023/08/21 01:04:47;;;;;;;5.55;2.63;;;;;;;16.85;96.41;102413.28;6097790;19;20010;-70
2023/08/21 01:06:53;;;;;;;6.97;2.60;;;;;;;16.82;96.46;102402.78;6098436;19;20094;-72
2023/08/21 01:09:04;;;;;;;4.43;2.50;;;;;;;16.85;97.12;102405.31;6098064;19;20010;-71
2023/08/21 01:11:20;;;;;;;5.90;2.58;;;;;;;16.78;96.41;102408.31;6099442;19;20019;-72
2023/08/21 01:13:43;;;;;;;5.15;2.30;;;;;;;16.75;96.54;102403.09;6087184;19;20010;-72
2023/08/21 01:15:50;;;;;;;6.32;2.60;;;;;;;16.73;96.91;102408.44;6097024;19;20036;-72
2023/08/21 01:18:02;;;;;;;6.32;2.15;;;;;;;16.71;97.10;102409.44;6095063;19;20537;-73
2023/08/21 01:20:11;;;;;;;3.72;2.20;;;;;;;16.71;97.28;102420.91;6096177;19;20003;-73
2023/08/21 01:22:16;;;;;;;4.20;2.40;;;;;;;16.68;96.29;102416.59;6094739;19;20416;-72
2023/08/21 01:24:24;;;;;;;4.82;2.45;;;;;;;16.66;95.63;102412.28;6096862;19;20010;-70
2023/08/21 01:26:29;;;;;;;6.05;2.63;;;;;;;16.65;96.10;102416.72;6096465;19;20006;-71
2023/08/21 01:28:36;;;;;;;8.05;2.42;;;;;;;16.66;96.59;102414.94;6096253;19;20373;-70
2023/08/21 01:30:42;;;;;;;6.10;2.13;;;;;;;16.62;95.22;102411.53;6093104;19;20011;-70
2023/08/21 01:32:55;;;;;;;6.30;2.45;;;;;;;16.63;96.58;102418.56;6094807;19;20390;-71
2023/08/21 01:35:01;;;;;;;2.80;2.05;;;;;;;16.68;96.62;102423.69;6096803;19;20389;-72
2023/08/21 01:37:08;;;;;;;9.07;2.88;;;;;;;16.75;97.57;102427.84;6096088;19;20007;-72
2023/08/21 01:39:13;;;;;;;5.90;2.42;;;;;;;16.78;97.68;102424.22;6097989;19;20455;-72
2023/08/21 01:41:21;;;;;;;6.63;2.08;;;;;;;16.83;97.78;102427.56;6099336;19;20483;-72
2023/08/21 01:43:29;;;;;;;7.05;2.47;;;;;;;16.83;98.61;102422.25;6097466;19;19999;-72
2023/08/21 01:45:34;;;;;;;3.92;2.25;;;;;;;16.83;97.60;102427.56;6099731;19;20014;-72
2023/08/21 01:47:39;;;;;;;4.25;2.03;;;;;;;16.83;97.31;102422.25;6091601;19;20385;-71
2023/08/21 01:49:45;;;;;;;4.63;2.17;;;;;;;16.76;97.96;102423.38;6099175;19;20043;-71
2023/08/21 01:51:52;;;;;;;7.45;2.35;;;;;;;16.77;97.64;102419.78;6094970;19;20480;-72
2023/08/21 01:53:58;;;;;;;5.63;2.53;;;;;;;16.76;97.77;102426.03;6095798;19;20070;-71
2023/08/21 01:56:03;;;;;;;6.30;2.08;;;;;;;16.70;97.73;102426.31;6094876;19;20022;-71
2023/08/21 01:58:11;;;;;;;5.80;1.98;;;;;;;16.71;97.85;102428.03;6096078;19;20470;-73
2023/08/21 02:00:17;;;;;;;3.78;2.50;;;;;;;16.68;97.91;102421.91;6094815;19;20490;-70
2023/08/21 02:02:22;;;;;;;8.27;2.75;;;;;;;16.62;98.14;102423.97;6093563;19;20077;-71
2023/08/21 02:04:29;;;;;;;4.85;1.95;;;;;;;16.57;98.21;102418.84;6091691;19;20842;-72
2023/08/21 02:06:35;;;;;;;4.18;2.38;;;;;;;16.58;99.11;102422.34;6097772;19;20575;-71
2023/08/21 02:08:40;;;;;;;7.13;2.15;;;;;;;16.58;99.34;102414.38;6097254;19;20018;-71
2023/08/21 02:10:49;;;;;;;3.72;1.98;;;;;;;16.54;99.49;102416.31;6093661;19;20050;-73
2023/08/21 02:12:55;;;;;;;4.97;2.40;;;;;;;16.51;100.00;102426.16;6092930;19;20002;-71
2023/08/21 02:15:02;;;;;;;3.55;2.28;;;;;;;16.48;100.00;102423.63;6098412;19;20018;-71
2023/08/21 02:17:07;;;;;;;5.85;2.30;;;;;;;16.45;100.00;102414.00;6094497;19;20006;-71
2023/08/21 02:19:13;;;;;;;3.45;2.53;;;;;;;16.46;100.00;102426.38;6096409;19;20023;-71
2023/08/21 02:21:18;;;;;;;3.28;2.10;;;;;;;16.42;100.00;102419.44;6085276;19;20002;-72
2023/08/21 02:23:25;;;;;;;6.05;2.53;;;;;;;16.40;100.00;102421.28;6093421;19;20015;-71
2023/08/21 02:25:31;;;;;;;4.82;2.08;;;;;;;16.36;100.00;102412.59;6092991;19;20026;-71
2023/08/21 02:27:37;;;;;;;6.70;2.50;;;;;;;16.37;100.00;102419.63;6092188;19;20045;-71
2023/08/21 02:29:42;;;;;;;6.88;2.20;;;;;;;16.35;100.00;102415.28;6092449;19;20090;-71
2023/08/21 02:31:50;;;;;;;4.65;2.30;;;;;;;16.33;100.00;102414.53;6093006;19;20097;-71
2023/08/21 02:33:55;;;;;;;5.43;2.20;;;;;;;16.32;100.00;102418.06;6093464;19;20011;-71
2023/08/21 02:36:02;;;;;;;4.45;2.20;;;;;;;16.30;100.00;102417.25;6092403;19;20080;-71
2023/08/21 02:38:08;;;;;;;7.20;2.10;;;;;;;16.29;100.00;102410.25;6094373;19;20307;-71
2023/08/21 02:40:13;;;;;;;3.13;2.10;;;;;;;16.27;100.00;102420.03;6087525;19;20462;-71
2023/08/21 02:42:18;;;;;;;6.10;2.60;;;;;;;16.25;100.00;102412.16;6095255;19;20007;-71
2023/08/21 02:44:23;;;;;;;5.55;2.50;;;;;;;16.29;100.00;102412.91;6092790;19;20013;-71
2023/08/21 02:46:33;;;;;;;6.72;2.45;;;;;;;16.23;100.00;102416.66;6097392;19;20042;-71
2023/08/21 02:48:40;;;;;;;4.45;2.42;;;;;;;16.17;100.00;102408.94;6089065;19;20548;-71
2023/08/21 02:50:46;;;;;;;5.13;2.00;;;;;;;16.12;100.00;102411.78;6094381;19;20566;-72
2023/08/21 02:52:51;;;;;;;6.47;2.72;;;;;;;16.13;100.00;102413.47;6090668;19;20003;-72
2023/08/21 02:54:58;;;;;;;5.53;2.15;;;;;;;16.12;100.00;102408.25;6091568;19;20401;-71
2023/08/21 02:57:03;;;;;;;4.97;2.50;;;;;;;16.10;100.00;102408.31;6091413;19;20034;-72
2023/08/21 02:59:09;;;;;;;6.97;2.10;;;;;;;16.06;100.00;102408.47;6082060;19;20007;-71
2023/08/21 03:01:14;;;;;;;4.28;2.50;;;;;;;16.04;100.00;102413.00;6089704;19;20042;-71
2023/08/21 03:03:19;;;;;;;5.32;2.63;;;;;;;16.01;100.00;102413.97;6089575;19;20042;-71
2023/08/21 03:05:36;;;;;;;4.85;2.55;;;;;;;16.00;100.00;102404.28;6092658;19;20344;-71
2023/08/21 03:07:39;;;;;;;6.13;2.40;;;;;;;15.95;100.00;102399.13;6088360;19;20033;-71
2023/08/21 03:09:44;;;;;;;6.00;2.55;;;;;;;15.96;100.00;102400.88;6093293;19;20003;-72
2023/08/21 03:11:49;;;;;;;5.50;2.85;;;;;;;15.94;100.00;102404.53;6087092;19;20014;-72
2023/08/21 03:13:55;;;;;;;5.28;2.20;;;;;;;15.96;100.00;102408.00;6092444;19;20009;-73
2023/08/21 03:16:00;;;;;;;5.63;2.30;;;;;;;15.91;100.00;102407.28;6092865;19;20011;-70
2023/08/21 03:18:06;;;;;;;5.00;2.38;;;;;;;15.90;100.00;102397.59;6085585;19;20007;-70
2023/08/21 03:20:13;;;;;;;4.82;2.45;;;;;;;15.90;100.00;102401.09;6095077;19;20007;-71
2023/08/21 03:22:21;;;;;;;6.35;2.70;;;;;;;15.89;100.00;102404.69;6095742;19;20010;-72
2023/08/21 03:24:26;;;;;;;7.15;2.80;;;;;;;15.87;100.00;102401.22;6091197;19;20392;-72
2023/08/21 03:26:31;;;;;;;4.35;2.53;;;;;;;15.85;100.00;102391.59;6099112;19;20078;-70
2023/08/21 03:28:36;;;;;;;5.85;2.92;;;;;;;15.81;100.00;102393.50;6099284;19;20023;-70
2023/08/21 03:30:42;;;;;;;7.28;2.83;;;;;;;15.79;100.00;102398.84;6096426;19;21087;-71
2023/08/21 03:32:48;;;;;;;7.45;2.92;;;;;;;15.79;100.00;102403.31;6090106;19;20105;-71
2023/08/21 03:34:54;;;;;;;5.00;2.70;;;;;;;15.75;100.00;102402.56;6093137;19;20070;-71
2023/08/21 03:37:02;;;;;;;7.68;3.35;;;;;;;15.83;100.00;102399.63;6099049;19;20923;-70
2023/08/21 03:39:10;;;;;;;5.47;2.58;;;;;;;15.80;100.00;102400.59;6096320;19;20010;-71
2023/08/21 03:41:15;;;;;;;5.72;2.90;;;;;;;15.78;100.00;102401.59;6092659;19;20013;-72
2023/08/21 03:43:21;;;;;;;6.63;3.20;;;;;;;15.75;100.00;102405.22;6099189;19;20026;-72
2023/08/21 03:45:26;;;;;;;7.10;2.80;;;;;;;15.77;100.00;102403.38;6099093;19;20003;-71
2023/08/21 03:47:31;;;;;;;5.45;2.80;;;;;;;15.75;100.00;102397.25;6098888;19;20612;-71
2023/08/21 03:49:37;;;;;;;5.32;2.45;;;;;;;15.76;100.00;102406.06;6099295;19;20421;-71
2023/08/21 03:51:44;;;;;;;4.82;2.80;;;;;;;15.73;100.00;102407.03;6098761;19;20094;-72
2023/08/21 03:53:47;;;;;;;7.43;3.17;;;;;;;15.69;100.00;102407.22;6094557;19;20535;-71
2023/08/21 03:56:00;;;;;;;15.82;3.72;;;;;;;15.67;100.00;102399.31;6093909;19;20006;-72
2023/08/21 03:58:05;;;;;;;5.35;2.80;;;;;;;15.66;100.00;102405.50;6098140;19;20472;-71
2023/08/21 04:00:12;;;;;;;6.85;2.90;;;;;;;15.63;100.00;102416.22;6091778;19;20083;-71
2023/08/21 04:02:17;;;;;;;4.28;2.25;;;;;;;15.59;100.00;102404.03;6098731;19;21132;-71
2023/08/21 04:04:23;;;;;;;8.32;3.80;;;;;;;15.63;100.00;102405.63;6097831;19;20372;-71
2023/08/21 04:06:31;;;;;;;6.90;3.17;;;;;;;15.61;100.00;102404.81;6097107;19;20375;-71
2023/08/21 04:08:36;;;;;;;7.82;3.47;;;;;;;15.63;100.00;102410.91;6097881;19;20801;-71
2023/08/21 04:10:41;;;;;;;7.32;2.90;;;;;;;15.57;100.00;102408.50;6095830;19;20070;-71
2023/08/21 04:12:52;;;;;;;6.05;3.08;;;;;;;15.53;100.00;102404.22;6094667;19;20018;-71
2023/08/21 04:14:59;;;;;;;6.57;3.63;;;;;;;15.52;100.00;102410.47;6093608;19;20002;-71
2023/08/21 04:17:05;;;;;;;6.75;3.50;;;;;;;15.49;100.00;102414.09;6095479;19;20015;-71
2023/08/21 04:19:10;;;;;;;7.35;4.28;;;;;;;15.53;100.00;102409.53;6101055;19;20605;-71
2023/08/21 04:21:15;;;;;;;5.30;3.03;;;;;;;15.51;100.00;102409.59;6095862;19;20006;-71
2023/08/21 04:23:18;;;;;;;6.75;2.90;;;;;;;15.43;100.00;102406.38;6092293;19;20018;-71
2023/08/21 04:25:23;;;;;;;;;;;;;;;15.43;100.00;102401.06;6099115;19;20197;-71
2023/08/21 04:27:30;;;;;;;6.55;3.00;;;;;;;15.41;100.00;102402.91;6095265;19;20684;-71
2023/08/21 04:29:39;;;;;;;9.60;4.22;;;;;;;15.36;100.00;102405.69;6096556;19;20006;-72
2023/08/21 04:31:44;;;;;;;7.63;3.40;;;;;;;15.39;100.00;102406.53;6091982;19;20081;-71
2023/08/21 04:33:49;;;;;;;8.07;3.63;;;;;;;15.37;100.00;102407.41;6093271;19;20168;-71
2023/08/21 04:35:55;;;;;;;6.82;3.08;;;;;;;15.35;100.00;102409.28;6094778;19;20717;-71
2023/08/21 04:38:01;;;;;;;8.02;3.50;;;;;;;15.41;100.00;102413.50;6092948;19;20007;-72
2023/08/21 04:40:07;;;;;;;7.43;3.25;;;;;;;15.38;100.00;102418.91;6095178;19;20094;-70
2023/08/21 04:42:12;;;;;;;7.80;2.95;;;;;;;15.35;100.00;102419.88;6094992;19;20475;-71
2023/08/21 04:44:17;;;;;;;10.18;3.30;;;;;;;15.32;100.00;102420.00;6094231;19;20006;-72
2023/08/21 04:46:28;;;;;;;8.10;3.83;;;;;;;15.35;100.00;102417.22;6091560;19;20011;-72
2023/08/21 04:48:30;;;;;;;6.82;3.17;;;;;;;15.32;100.00;102420.00;6091263;19;20015;-72
2023/08/21 04:50:36;;;;;;;7.65;3.45;;;;;;;15.39;100.00;102425.06;6092670;19;20022;-72
2023/08/21 04:52:41;;;;;;;5.88;3.25;;;;;;;15.33;100.00;102420.84;6092335;19;20842;-71
2023/08/21 04:54:46;;;;;;;9.68;3.40;;;;;;;15.30;100.00;102416.53;6095067;19;20010;-72
2023/08/21 04:56:57;;;;;;;7.05;3.15;;;;;;;15.30;100.00;102421.81;6095609;19;20664;-72
2023/08/21 04:59:05;;;;;;;6.03;3.42;;;;;;;15.34;100.00;102423.44;6096407;19;20003;-71
2023/08/21 05:01:10;;;;;;;7.13;3.50;;;;;;;15.32;100.00;102420.00;6093971;19;20011;-72
2023/08/21 05:03:18;;;;;;;6.03;3.30;;;;;;;15.32;100.00;102422.63;6086954;19;20678;-72
2023/08/21 05:05:23;;;;;;;6.72;3.28;;;;;;;15.30;100.00;102418.31;6094166;19;20892;-72
2023/08/21 05:07:32;;;;;;;6.82;2.72;;;;;;;15.33;100.00;102420.84;6093270;19;20446;-73
2023/08/21 05:09:37;;;;;;;6.93;3.13;;;;;;;15.39;100.00;102422.41;6093116;19;19998;-71
2023/08/21 05:11:42;;;;;;;7.18;2.88;;;;;;;15.45;100.00;102427.47;6095671;19;20564;-73
2023/08/21 05:13:47;;;;;;;6.97;3.17;;;;;;;15.46;100.00;102422.16;6093471;19;20015;-71
2023/08/21 05:15:56;;;;;;;7.47;3.33;;;;;;;15.54;100.00;102427.16;6087590;19;20009;-72
2023/08/21 05:18:02;;;;;;;11.02;3.97;;;;;;;15.53;100.00;102433.38;6093578;19;20106;-71
2023/08/21 05:20:13;;;;;;;8.05;3.50;;;;;;;15.56;100.00;102431.50;6095761;19;20118;-71
2023/08/21 05:22:19;;;;;;;6.65;3.45;;;;;;;15.59;100.00;102430.53;6094720;19;20597;-72
2023/08/21 05:24:24;;;;;;;7.07;3.28;;;;;;;15.60;100.00;102426.94;6095289;19;20010;-71
2023/08/21 05:26:31;;;;;;;6.38;3.60;;;;;;;15.64;100.00;102433.88;6096003;19;20537;-71
2023/08/21 05:28:36;;;;;;;8.85;3.20;;;;;;;15.73;100.00;102432.69;6097300;19;20018;-71
2023/08/21 05:30:41;;;;;;;9.57;3.80;;;;;;;15.77;100.00;102432.53;6095920;19;20026;-73
2023/08/21 05:32:46;;;;;;;6.03;3.10;;;;;;;15.79;100.00;102433.31;6086328;19;20010;-72
2023/08/21 05:34:51;;;;;;;6.40;3.22;;;;;;;15.89;100.00;102433.00;6089683;19;20042;-72
2023/08/21 05:36:59;;;;;;;7.03;3.38;;;;;;;15.95;100.00;102433.59;6093274;19;20630;-72
2023/08/21 05:39:05;;;;;;;6.78;3.72;;;;;;;16.05;100.00;102430.63;6093130;19;20338;-72
2023/08/21 05:41:11;;;;;;;7.90;3.67;;;;;;;16.22;100.00;102434.38;6094891;19;20003;-72
2023/08/21 05:43:16;;;;;;;7.88;3.70;;;;;;;16.40;100.00;102434.56;6096250;19;20010;-72
2023/08/21 05:45:21;;;;;;;8.18;4.55;;;;;;;16.59;100.00;102432.91;6092259;19;20326;-71
2023/08/21 05:47:26;;;;;;;11.68;3.78;;;;;;;16.81;100.00;102437.38;6095104;19;20657;-71
2023/08/21 05:49:32;;;;;;;12.25;5.05;;;;;;;17.07;100.00;102428.31;6092718;19;22546;-70
2023/08/21 05:51:35;;;;;;;8.05;4.18;;;;;;;17.33;100.00;102440.47;6092081;19;20579;-70
2023/08/21 05:53:42;;;;;;;8.55;3.92;;;;;;;17.53;100.00;102442.25;6089235;19;20382;-71
2023/08/21 05:55:48;;;;;;;10.15;4.55;;;;;;;17.74;100.00;102435.97;6094866;19;20050;-71
2023/08/21 05:57:53;;;;;;;10.18;4.10;;;;;;;18.01;99.82;102434.81;6095425;19;20573;-71
2023/08/21 05:59:59;;;;;;;9.05;4.18;;;;;;;18.19;98.18;102428.63;6094018;19;20357;-71
2023/08/21 06:02:04;;;;;;;10.98;4.60;;;;;;;18.45;97.64;102432.72;6094081;19;20361;-71
2023/08/21 06:04:09;;;;;;;7.88;3.83;;;;;;;18.68;97.08;102428.94;6097160;19;20435;-70
2023/08/21 06:06:15;;;;;;;9.20;4.30;;;;;;;18.86;95.83;102433.38;6090945;19;20532;-71
2023/08/21 06:08:20;;;;;;;13.85;4.18;;;;;;;19.10;94.13;102427.75;6083496;19;20019;-71
2023/08/21 06:10:28;;;;;;;8.30;4.30;;;;;;;19.22;93.26;102437.78;6089327;19;20007;-73
2023/08/21 06:12:34;;;;;;;7.93;4.18;;;;;;;19.47;93.26;102433.84;6100270;19;20609;-72
2023/08/21 06:14:40;;;;;;;9.98;4.63;;;;;;;19.63;92.80;102440.06;6096724;19;20034;-70
2023/08/21 06:16:47;;;;;;;15.13;4.82;;;;;;;19.85;91.19;102436.28;6098454;19;20034;-71
2023/08/21 06:18:52;;;;;;;13.15;4.80;;;;;;;19.82;89.26;102439.97;6097178;19;20510;-71
2023/08/21 06:28:47;;;;;;;10.15;4.65;;;;;;;20.54;86.15;102437.84;6107425;19;20800;-71
2023/08/21 06:31:03;;;;;;;12.68;4.75;;;;;;;20.47;86.68;102439.94;6125552;19;20029;-71
2023/08/21 06:33:11;;;;;;;10.45;4.10;;;;;;;20.75;85.93;102444.59;6126334;19;20754;-72
2023/08/21 06:35:19;;;;;;;14.50;5.05;;;;;;;21.05;85.97;102447.28;6129551;19;20014;-72
2023/08/21 06:37:38;;;;;;;;;;;;;;;;;;;;;
2023/08/21 06:39:44;;;;;;;12.98;4.22;;;;;;;21.24;84.72;102441.69;6127113;19;20002;-71
2023/08/21 06:41:49;;;;;;;9.85;4.85;;;;;;;21.32;84.83;102443.91;6126794;19;20039;-71
2023/08/21 06:44:00;;;;;;;9.48;4.68;;;;;;;21.49;83.89;102450.94;6126537;19;20006;-72
2023/08/21 06:46:18;;;;;;;9.50;4.10;;;;;;;21.67;83.53;102451.63;6124213;19;20545;-73
2023/08/21 06:48:25;;;;;;;10.50;3.55;;;;;;;21.98;83.14;102452.38;6120826;19;20006;-72
2023/08/21 06:50:32;;;;;;;13.38;3.90;;;;;;;21.81;83.09;102448.94;6127424;19;20487;-72
2023/08/21 06:52:37;;;;;;;10.23;3.58;;;;;;;22.23;82.26;102449.03;6123868;19;19999;-71
2023/08/21 06:54:45;;;;;;;11.52;3.47;;;;;;;22.32;83.04;102445.75;6127876;19;20027;-71
2023/08/21 06:56:50;;;;;;;10.85;3.45;;;;;;;22.52;81.41;102447.16;6126840;19;20013;-71
2023/08/21 06:58:58;;;;;;;6.50;3.05;;;;;;;22.45;81.67;102457.38;6126069;19;20127;-72
2023/08/21 07:01:03;;;;;;;11.70;3.55;;;;;;;22.42;81.80;102451.38;6127321;19;20027;-71
2023/08/21 07:03:09;;;;;;;9.32;3.13;;;;;;;22.52;80.72;102455.19;6126634;19;20078;-72
2023/08/21 07:05:14;;;;;;;8.32;2.95;;;;;;;22.68;80.07;102450.53;6126397;19;20012;-72
2023/08/21 07:07:16;;;;;;;6.38;3.30;;;;;;;22.55;81.08;102445.13;6125067;19;20134;-72
2023/08/21 07:09:22;;;;;;;10.55;3.10;;;;;;;22.78;79.71;102457.00;6127451;19;20031;-72
2023/08/21 07:11:32;;;;;;;9.57;3.90;;;;;;;23.15;80.09;102446.50;6127589;19;20025;-73
2023/08/21 07:13:37;;;;;;;10.13;3.65;;;;;;;23.30;77.85;102454.44;6125401;19;20365;-72
2023/08/21 07:15:45;;;;;;;8.55;3.50;;;;;;;23.53;77.18;102459.06;6126001;19;20006;-73
2023/08/21 07:17:51;;;;;;;10.43;3.97;;;;;;;23.42;78.06;102456.28;6122662;19;20122;-71
2023/08/21 07:19:58;;;;;;;10.55;4.05;;;;;;;23.69;77.03;102458.00;6124648;19;20520;-72
2023/08/21 07:22:03;;;;;;;11.88;3.40;;;;;;;23.53;75.80;102460.91;6124060;19;20029;-71
2023/08/21 07:24:09;;;;;;;9.98;3.67;;;;;;;23.27;77.28;102468.06;6127527;19;20042;-71
2023/08/21 07:26:15;;;;;;;6.80;2.83;;;;;;;23.50;76.38;102463.81;6125557;19;20010;-71
2023/08/21 07:28:20;;;;;;;8.98;3.53;;;;;;;23.63;75.36;102462.84;6115844;19;20010;-70
2023/08/21 07:30:25;;;;;;;10.65;3.25;;;;;;;23.96;74.85;102461.47;6123489;19;20515;-72
2023/08/21 07:32:36;;;;;;;10.23;3.25;;;;;;;23.59;75.84;102458.66;6122124;19;20013;-73
2023/08/21 07:34:42;;;;;;;11.70;3.65;;;;;;;23.90;75.54;102461.03;6124284;19;20467;-71
2023/08/21 07:36:47;;;;;;;7.95;4.28;;;;;;;24.06;75.67;102467.00;6124785;19;20010;-71
2023/08/21 07:38:55;;;;;;;9.90;3.53;;;;;;;24.17;74.61;102475.19;6112972;19;20074;-72
2023/08/21 07:41:07;;;;;;;9.90;3.58;;;;;;;23.87;73.03;102467.47;6100272;19;20006;-71
2023/08/21 07:43:12;;;;;;;10.00;3.92;;;;;;;23.76;75.23;102467.38;6101400;19;20003;-72
2023/08/21 07:45:18;;;;;;;7.50;3.50;;;;;;;24.51;73.58;102465.53;6099195;19;21343;-72
2023/08/21 07:47:23;;;;;;;7.95;3.13;;;;;;;24.58;72.59;102471.28;6099729;19;20564;-71
2023/08/21 07:49:32;;;;;;;9.60;3.55;;;;;;;24.73;72.06;102464.78;6099968;19;20002;-72
2023/08/21 07:51:37;;;;;;;9.57;3.42;;;;;;;24.94;71.33;102473.06;6100553;19;20500;-71
2023/08/21 07:53:44;;;;;;;11.55;4.40;;;;;;;24.88;70.12;102472.66;6097837;19;20035;-72
2023/08/21 07:55:49;;;;;;;12.48;3.40;;;;;;;25.11;70.57;102473.59;6097056;19;20527;-72
2023/08/21 07:57:54;;;;;;;10.32;3.90;;;;;;;25.39;68.54;102486.69;6099962;19;20010;-72
2023/08/21 08:00:00;;;;;;;8.57;3.50;;;;;;;25.30;68.82;102482.00;6102785;19;20078;-72
2023/08/21 08:02:05;;;;;;;10.52;4.45;;;;;;;25.05;69.61;102482.16;6101704;19;20010;-71
2023/08/21 08:04:10;;;;;;;11.30;3.92;;;;;;;25.39;69.14;102478.59;6101540;19;20601;-71
2023/08/21 08:06:18;;;;;;;8.75;3.17;;;;;;;25.60;67.64;102472.53;6099466;19;20002;-72
2023/08/21 08:08:25;;;;;;;5.82;3.83;;;;;;;25.39;68.19;102467.84;6098725;19;20002;-73
2023/08/21 08:10:30;;;;;;;7.68;3.38;;;;;;;25.13;66.39;102474.34;6102572;19;20455;-71
2023/08/21 08:12:35;;;;;;;8.40;2.70;;;;;;;25.44;65.92;102472.03;6096520;19;20013;-71
2023/08/21 08:14:41;;;;;;;8.23;2.95;;;;;;;25.01;65.71;102477.97;6099688;19;20017;-73
2023/08/21 08:16:46;;;;;;;9.40;2.80;;;;;;;25.72;64.00;102474.22;6099536;19;20443;-72
2023/08/21 08:18:53;;;;;;;3.75;2.38;;;;;;;25.94;63.58;102477.97;6100026;19;20129;-71
2023/08/21 08:20:59;;;;;;;11.93;2.80;;;;;;;25.78;63.56;102473.78;6100222;19;20153;-72
2023/08/21 08:23:06;;;;;;;8.93;2.90;;;;;;;25.57;65.66;102480.84;6100248;19;20030;-71
2023/08/21 08:25:13;;;;;;;6.97;2.70;;;;;;;25.63;64.64;102474.97;6097257;19;21137;-72
2023/08/21 08:27:18;;;;;;;9.32;2.78;;;;;;;25.80;64.35;102477.19;6098021;19;20014;-71
2023/08/21 08:29:23;;;;;;;6.80;3.10;;;;;;;26.14;61.48;102477.19;6098836;19;20082;-72
2023/08/21 08:31:30;;;;;;;6.90;2.53;;;;;;;26.37;61.81;102477.19;6099195;19;20015;-71
2023/08/21 08:33:35;;;;;;;9.88;2.95;;;;;;;26.33;60.85;102476.59;6099703;19;20006;-71
2023/08/21 08:35:41;;;;;;;7.00;3.15;;;;;;;26.65;60.92;102479.34;6100557;19;20006;-71
2023/08/21 08:37:43;;;;;;;7.15;3.55;;;;;;;25.78;63.25;102470.22;6100789;19;20007;-71
2023/08/21 08:39:51;;;;;;;7.72;3.22;;;;;;;26.12;62.28;102468.41;6099537;19;20840;-71
2023/08/21 08:42:01;;;;;;;9.95;3.20;;;;;;;26.22;62.65;102471.19;6101794;19;20023;-71
2023/08/21 08:44:08;;;;;;;11.07;3.60;;;;;;;26.70;61.35;102463.63;6100752;19;20011;-71
2023/08/21 08:46:14;;;;;;;6.85;3.17;;;;;;;26.35;59.54;102462.97;6098557;19;20003;-74
2023/08/21 08:48:23;;;;;;;6.32;2.72;;;;;;;26.62;59.25;102460.72;6097776;19;20085;-72
2023/08/21 08:50:32;;;;;;;10.50;3.58;;;;;;;27.03;59.00;102463.59;6094409;19;20010;-71
2023/08/21 08:52:39;;;;;;;11.82;3.22;;;;;;;26.64;57.72;102468.66;6094310;19;19999;-71
2023/08/21 08:54:45;;;;;;;9.38;3.22;;;;;;;26.81;59.34;102460.03;6099869;19;20094;-71
2023/08/21 08:56:53;;;;;;;9.48;3.58;;;;;;;26.70;58.94;102469.03;6100903;19;20055;-75
2023/08/21 08:59:01;;;;;;;6.95;2.63;;;;;;;27.29;57.48;102464.13;6100984;19;20014;-76
2023/08/21 09:01:06;;;;;;;4.78;2.25;;;;;;;27.78;57.26;102465.25;6103014;19;20031;-77
2023/08/21 09:03:12;;;;;;;6.80;2.50;;;;;;;27.69;57.12;102472.28;6101396;19;20007;-78
2023/08/21 09:05:15;;;;;;;7.22;2.72;;;;;;;27.54;56.31;102473.63;6102069;19;20110;-75
2023/08/21 09:07:21;;;;;;;8.25;3.33;;;;;;;26.90;57.64;102475.44;6099431;19;20072;-78
2023/08/21 09:09:26;;;;;;;6.72;2.30;;;;;;;27.19;55.74;102464.03;6099778;19;20709;-76
2023/08/21 09:11:32;;;;;;;6.18;1.98;;;;;;;27.25;54.87;102468.03;6100236;19;20497;-75
2023/08/21 09:13:40;;;;;;;8.00;2.47;;;;;;;27.07;54.95;102465.91;6100328;19;20011;-76
2023/08/21 09:15:47;;;;;;;4.63;2.20;;;;;;;27.70;54.27;102467.72;6098604;19;20028;-76
2023/08/21 09:17:56;;;;;;;7.18;2.28;;;;;;;27.39;53.38;102469.59;6100332;19;20011;-75
2023/08/21 09:20:07;;;;;;;6.13;2.22;;;;;;;27.66;53.13;102466.31;6099547;19;20027;-76
2023/08/21 09:22:14;;;;;;;6.03;2.20;;;;;;;27.73;53.25;102467.50;6097698;19;20753;-76
2023/08/21 09:24:17;;;;;;;6.45;2.47;;;;;;;27.35;53.52;102463.56;6097721;19;20034;-74
2023/08/21 09:26:23;;;;;;;6.40;2.53;;;;;;;27.46;53.04;102459.94;6097811;19;20025;-71
2023/08/21 09:28:31;;;;;;;5.15;2.20;;;;;;;27.40;53.25;102463.19;6098614;19;20663;-77
2023/08/21 09:30:58;;;;;;;4.63;2.03;;;;;;;28.02;51.50;102464.94;6097262;19;20007;-76
2023/08/21 09:33:04;;;;;;;5.95;2.10;;;;;;;28.13;51.49;102464.81;6100906;19;20479;-72
2023/08/21 09:35:16;;;;;;;5.65;2.30;;;;;;;28.15;50.18;102462.00;6099297;19;20606;-71
2023/08/21 09:37:21;;;;;;;5.05;2.03;;;;;;;28.45;49.21;102463.78;6098386;19;20014;-72
2023/08/21 09:39:29;;;;;;;4.65;1.77;;;;;;;28.09;49.40;102457.13;6100609;19;20467;-72
2023/08/21 09:41:34;;;;;;;2.97;2.10;;;;;;;28.39;50.16;102458.91;6100176;19;20467;-72
2023/08/21 09:43:45;;;;;;;8.80;2.60;;;;;;;28.19;49.93;102455.28;6097519;19;20017;-72
2023/08/21 09:45:55;;;;;;;9.15;2.60;;;;;;;28.35;49.86;102444.78;6100325;19;20021;-72
2023/08/21 09:48:01;;;;;;;5.70;2.25;;;;;;;28.63;48.96;102450.41;6098977;19;20047;-72
2023/08/21 09:50:07;;;;;;;5.57;2.42;;;;;;;27.51;50.57;102458.53;6097789;19;20014;-72
2023/08/21 09:52:13;;;;;;;3.92;1.92;;;;;;;28.76;49.46;102445.59;6098784;19;20455;-72
2023/08/21 09:54:19;;;;;;;6.97;2.80;;;;;;;28.59;48.04;102454.38;6098423;19;20034;-75